Kimberly Turecamo — WDC6838 — position and weather

sailwx.info

Track history (hours):
 
Tides and Currents Weather Stations Pressure Air Temp Water Temp Dewpoint Dewpoint Depression Visibility Wind Speed Wind Dir Waves Ship Positions

Kimberly Turecamo

Owner: Moran Towing Corporation, New Canaan, CT. More information available from US FCC via Universal Licensing System and Coast Guard Vessel Documentation Center.

Last reported at 2017-Dec-16 11:08 UTC. Time now 2017-Dec-16 17:08 UTC.
Position N 40°60' W 073°53'.

Length 31 m; draft 5 m.

Type: Tug. MMSI: 367061980.

Date/timePositionNaut miles runAvg speedWind from/ knotsBaromVisibWave heightAir tempDewpointWater temp
2017-Dec-16 11:08N 40°60' W 073°53'2 8.6
2017-Dec-16 10:51N 40°58' W 073°54'3 8.3
2017-Dec-16 10:29N 40°55' W 073°55'4 8.1
2017-Dec-16 10:00N 40°51' W 073°57'4 8.3
2017-Dec-16 09:30N 40°47' W 073°59'4 8.1
2017-Dec-16 09:00N 40°44' W 074°01'4 8.0
2017-Dec-16 08:30N 40°40' W 074°03'4 7.7
2017-Dec-16 08:00N 40°38' W 074°08'0 0.1
2017-Dec-16 07:29N 40°38' W 074°08'0 0.0
2017-Dec-16 06:56N 40°38' W 074°08'0 0.0
2017-Dec-16 06:26N 40°38' W 074°08'0 0.0
2017-Dec-16 05:59N 40°38' W 074°08'0 0.0
2017-Dec-16 05:29N 40°38' W 074°08'0 0.0
2017-Dec-16 04:59N 40°38' W 074°08'0 0.0
2017-Dec-16 04:26N 40°38' W 074°08'0 0.0
2017-Dec-16 03:59N 40°38' W 074°08'0 0.0
2017-Dec-16 03:26N 40°38' W 074°08'0 0.0
2017-Dec-16 02:56N 40°38' W 074°08'0 0.0
2017-Dec-16 02:26N 40°38' W 074°08'0 0.0
2017-Dec-16 01:56N 40°38' W 074°08'0 0.0
2017-Dec-16 01:26N 40°38' W 074°08'0 0.0
2017-Dec-16 00:59N 40°38' W 074°08'0 0.0
2017-Dec-16 00:23N 40°38' W 074°08'0 0.0
2017-Dec-15 23:59N 40°38' W 074°08'0 0.0
2017-Dec-15 23:29N 40°38' W 074°08'0 0.0
2017-Dec-15 22:02N 40°38' W 074°08'0 0.0
2017-Dec-15 21:56N 40°38' W 074°08'0 0.0
2017-Dec-15 21:29N 40°38' W 074°08'0 0.0
2017-Dec-15 20:59N 40°38' W 074°08'0 0.0
2017-Dec-15 20:26N 40°38' W 074°08'0 0.0
2017-Dec-15 19:56N 40°38' W 074°08'0 0.0
2017-Dec-15 19:26N 40°38' W 074°08'0 0.0
2017-Dec-15 18:47N 40°38' W 074°08'0 0.0
2017-Dec-15 18:26N 40°38' W 074°08'0 0.0
2017-Dec-15 17:59N 40°38' W 074°08'0 0.0
2017-Dec-15 17:26N 40°38' W 074°08'0 0.0
2017-Dec-15 16:56N 40°38' W 074°08'0 0.0
2017-Dec-15 16:29N 40°38' W 074°08'0 0.0
2017-Dec-15 15:56N 40°38' W 074°08'0 0.0
2017-Dec-15 15:26N 40°38' W 074°08'0 0.0
2017-Dec-15 14:53N 40°38' W 074°08'0 0.0
2017-Dec-15 14:29N 40°38' W 074°08'0 0.0
2017-Dec-15 13:32N 40°38' W 074°08'0 0.0
2017-Dec-15 13:26N 40°38' W 074°08'0 0.0
2017-Dec-15 12:56N 40°38' W 074°08'0 0.0
2017-Dec-15 12:19N 40°38' W 074°08'0 0.0
2017-Dec-15 11:59N 40°38' W 074°08'2 4.2
2017-Dec-15 11:29N 40°39' W 074°10'1 1.4
2017-Dec-15 11:00N 40°39' W 074°11'2 5.0
2017-Dec-15 10:30N 40°39' W 074°08'4 7.1
2017-Dec-15 10:00N 40°39' W 074°03'1 1.5
2017-Dec-15 09:30N 40°38' W 074°03'4 7.4
2017-Dec-15 09:00N 40°38' W 074°08'0 0.0
2017-Dec-15 07:48N 40°38' W 074°08'0 0.0
2017-Dec-15 07:30N 40°38' W 074°08'0 0.0
2017-Dec-15 06:52N 40°38' W 074°08'0 0.0
2017-Dec-15 06:30N 40°38' W 074°08'2 4.8
2017-Dec-15 06:00N 40°39' W 074°05'2 3.0
2017-Dec-15 05:28N 40°39' W 074°03'0 0.0
2017-Dec-15 04:58N 40°39' W 074°03'0 0.0
2017-Dec-15 04:28N 40°39' W 074°03'0 0.0
2017-Dec-15 03:58N 40°39' W 074°03'0 0.0
2017-Dec-15 02:30N 40°39' W 074°03'0 0.0
2017-Dec-15 01:00N 40°39' W 074°03'0 0.0
2017-Dec-15 00:30N 40°39' W 074°03'4 0.7
2017-Dec-14 18:25N 40°38' W 074°08'0 0.0
2017-Dec-14 17:49N 40°38' W 074°08'0 0.0
2017-Dec-14 17:25N 40°38' W 074°08'0 0.0
2017-Dec-14 16:40N 40°38' W 074°08'0 0.0
2017-Dec-14 16:25N 40°38' W 074°08'0 0.0
2017-Dec-14 15:55N 40°38' W 074°08'0 0.0
2017-Dec-14 14:55N 40°38' W 074°08'0 0.0
2017-Dec-14 12:16N 40°38' W 074°08'0 0.0
2017-Dec-14 11:46N 40°38' W 074°08'0 0.0
2017-Dec-14 10:40N 40°38' W 074°08'0 0.0
2017-Dec-14 10:19N 40°38' W 074°08'0 0.0
2017-Dec-14 09:58N 40°38' W 074°08'0 0.0
2017-Dec-14 09:28N 40°38' W 074°08'0 0.0
2017-Dec-14 05:09N 40°38' W 074°08'0 0.0
2017-Dec-14 04:54N 40°38' W 074°08'0 0.0
2017-Dec-14 04:17N 40°38' W 074°08'3 9.7
2017-Dec-14 04:00N 40°39' W 074°04'1 2.5
2017-Dec-14 03:28N 40°39' W 074°03'0 0.1
2017-Dec-14 02:58N 40°39' W 074°03'0 0.1
2017-Dec-14 02:28N 40°39' W 074°03'0 0.1
2017-Dec-14 01:58N 40°40' W 074°03'0 0.0
2017-Dec-14 01:28N 40°40' W 074°03'0 0.0
2017-Dec-14 00:58N 40°40' W 074°03'0 0.1
2017-Dec-14 00:28N 40°40' W 074°03'0 0.1
2017-Dec-13 23:58N 40°40' W 074°03'0 0.0
2017-Dec-13 23:28N 40°40' W 074°03'1 3.0
2017-Dec-13 23:00N 40°39' W 074°04'3 4.8
2017-Dec-13 22:26N 40°38' W 074°08'0 0.6
2017-Dec-13 22:00N 40°39' W 074°07'0 0.9
2017-Dec-13 21:30N 40°39' W 074°07'1 1.0
2017-Dec-13 21:00N 40°39' W 074°08'0 0.2
2017-Dec-13 20:30N 40°39' W 074°08'0 0.1
2017-Dec-13 19:39N 40°38' W 074°08'0 0.0
2017-Dec-13 19:28N 40°38' W 074°08'1 1.6
2017-Dec-13 19:00N 40°39' W 074°07'1 1.5
2017-Dec-13 18:30N 40°38' W 074°08'0 0.0
2017-Dec-13 18:00N 40°38' W 074°08'0 0.0
2017-Dec-13 17:30N 40°38' W 074°08'0 0.0
2017-Dec-13 17:00N 40°38' W 074°08'0 0.0
2017-Dec-13 16:30N 40°38' W 074°08'0 0.0
2017-Dec-13 16:00N 40°38' W 074°08'0 0.0
2017-Dec-13 15:29N 40°38' W 074°08'0 0.0
2017-Dec-13 14:58N 40°38' W 074°08'0 0.0
2017-Dec-13 14:30N 40°38' W 074°08'0 0.0
2017-Dec-13 14:00N 40°38' W 074°08'0 0.0
2017-Dec-13 13:30N 40°38' W 074°08'1 2.6
2017-Dec-13 12:58N 40°39' W 074°06'3 5.9
2017-Dec-13 12:30N 40°40' W 074°03'0 0.0
2017-Dec-13 11:58N 40°40' W 074°03'0 0.1
2017-Dec-13 11:28N 40°39' W 074°03'0 0.1
2017-Dec-13 10:58N 40°40' W 074°03'0 0.0
2017-Dec-13 10:28N 40°40' W 074°03'0 0.1
2017-Dec-13 09:58N 40°39' W 074°03'0 0.0
2017-Dec-13 09:31N 40°39' W 074°03'0 0.1
2017-Dec-13 09:01N 40°40' W 074°03'0 0.0
2017-Dec-13 08:25N 40°40' W 074°03'0 0.1
2017-Dec-13 08:00N 40°39' W 074°03'0 0.0
2017-Dec-13 07:30N 40°39' W 074°03'0 0.0
2017-Dec-13 07:00N 40°39' W 074°03'0 0.0
2017-Dec-13 06:30N 40°39' W 074°03'0 0.1
2017-Dec-13 06:00N 40°39' W 074°03'0 0.0
2017-Dec-13 05:30N 40°39' W 074°03'0 0.0
2017-Dec-13 05:00N 40°39' W 074°03'0 0.0
2017-Dec-13 04:30N 40°39' W 074°03'0 0.0
2017-Dec-13 04:00N 40°39' W 074°03'0 0.0
2017-Dec-13 03:30N 40°39' W 074°03'0 0.0
2017-Dec-13 03:00N 40°39' W 074°03'0 0.0
2017-Dec-13 02:30N 40°39' W 074°03'0 0.0
2017-Dec-13 02:00N 40°39' W 074°03'0 0.1
2017-Dec-13 01:30N 40°39' W 074°03'0 0.0
2017-Dec-13 01:00N 40°39' W 074°03'0 0.0
2017-Dec-13 00:30N 40°39' W 074°03'0 0.1
2017-Dec-13 00:00N 40°39' W 074°03'0 0.0
2017-Dec-12 23:30N 40°39' W 074°03'0 0.0
2017-Dec-12 23:00N 40°40' W 074°03'4 8.1
2017-Dec-12 22:30N 40°38' W 074°08'0 0.0
2017-Dec-12 22:00N 40°38' W 074°08'0 0.0
2017-Dec-12 21:27N 40°38' W 074°08'0 0.0
2017-Dec-12 21:00N 40°38' W 074°08'0 0.0
2017-Dec-12 20:30N 40°38' W 074°08'1 1.1
2017-Dec-12 20:00N 40°39' W 074°07'0 0.1
2017-Dec-12 19:30N 40°39' W 074°07'3 5.6
2017-Dec-12 19:00N 40°38' W 074°03'3 5.7
2017-Dec-12 18:26N 40°38' W 074°08'0 0.0
2017-Dec-12 17:47N 40°38' W 074°08'0 0.0
2017-Dec-12 17:29N 40°38' W 074°08'0 0.0
2017-Dec-12 16:56N 40°38' W 074°08'0 0.0
2017-Dec-12 16:29N 40°38' W 074°08'0 0.0
2017-Dec-12 15:59N 40°38' W 074°08'0 0.0
2017-Dec-12 15:29N 40°38' W 074°08'0 0.0
2017-Dec-12 14:56N 40°38' W 074°08'0 0.0
2017-Dec-12 14:29N 40°38' W 074°08'0 0.0
2017-Dec-12 13:59N 40°38' W 074°08'0 0.0
2017-Dec-12 13:29N 40°38' W 074°08'0 0.0
2017-Dec-12 12:59N 40°38' W 074°08'0 0.0
2017-Dec-12 12:20N 40°38' W 074°08'0 0.0
2017-Dec-12 11:59N 40°38' W 074°08'0 0.0
2017-Dec-12 11:29N 40°38' W 074°08'0 0.0
2017-Dec-12 10:59N 40°38' W 074°08'0 0.0
2017-Dec-12 10:28N 40°38' W 074°08'0 0.0
2017-Dec-12 09:58N 40°38' W 074°08'0 0.0
2017-Dec-12 09:28N 40°38' W 074°08'0 0.0
2017-Dec-12 08:58N 40°38' W 074°08'0 0.0
2017-Dec-12 08:28N 40°38' W 074°08'0 0.0
2017-Dec-12 07:58N 40°38' W 074°08'0 0.0
2017-Dec-12 07:28N 40°38' W 074°08'0 0.0
2017-Dec-12 06:58N 40°38' W 074°08'0 0.0
2017-Dec-12 06:28N 40°38' W 074°08'0 0.0
2017-Dec-12 05:58N 40°38' W 074°08'0 0.0
2017-Dec-12 05:28N 40°38' W 074°08'0 0.0
2017-Dec-12 04:58N 40°38' W 074°08'0 0.0
2017-Dec-12 04:28N 40°38' W 074°08'0 0.7
2017-Dec-12 04:00N 40°39' W 074°07'4 6.7
2017-Dec-12 03:28N 40°39' W 074°03'1 2.2
2017-Dec-12 03:00N 40°40' W 074°02'4 7.1
2017-Dec-12 02:30N 40°44' W 074°01'510.8
2017-Dec-12 02:00N 40°49' W 073°58'510.3
2017-Dec-12 01:30N 40°54' W 073°55'8 0.2
2017-Dec-10 03:47N 41°01' W 073°53'2 6.4
2017-Dec-10 03:29N 40°59' W 073°53'3 6.0
2017-Dec-10 03:00N 40°57' W 073°54'1 1.7
2017-Dec-10 02:30N 40°56' W 073°55'1 2.1
2017-Dec-10 02:00N 40°55' W 073°55'1 1.9
2017-Dec-10 01:30N 40°54' W 073°55'1 2.5
2017-Dec-10 01:00N 40°53' W 073°56'2 3.5
2017-Dec-10 00:29N 40°51' W 073°57'2 3.2
2017-Dec-10 00:00N 40°50' W 073°58'2 3.0
2017-Dec-09 23:30N 40°48' W 073°59'2 3.3
2017-Dec-09 23:01N 40°47' W 073°60'3 6.1
2017-Dec-09 22:30N 40°44' W 074°01'3 6.3
2017-Dec-09 22:01N 40°41' W 074°02'3 6.2
2017-Dec-09 21:29N 40°39' W 074°05'3 6.8
2017-Dec-09 21:00N 40°39' W 074°10'1 3.0
2017-Dec-09 20:30N 40°38' W 074°12'0 0.0
2017-Dec-09 20:00N 40°38' W 074°12'0 0.0
2017-Dec-09 19:30N 40°38' W 074°12'3 1.2
2017-Dec-09 17:06N 40°38' W 074°08'0 0.0
2017-Dec-09 16:54N 40°38' W 074°08'0 0.0
2017-Dec-09 16:18N 40°38' W 074°08'0 0.0
2017-Dec-09 15:59N 40°38' W 074°08'3 6.2
2017-Dec-09 15:30N 40°38' W 074°12'0 0.0
2017-Dec-09 15:00N 40°38' W 074°12'0 0.5
2017-Dec-09 14:30N 40°39' W 074°11'3 5.6
2017-Dec-09 14:00N 40°39' W 074°08'2 3.3
2017-Dec-09 13:28N 40°39' W 074°05'0 0.0
2017-Dec-09 12:58N 40°39' W 074°05'0 0.0
2017-Dec-09 12:30N 40°39' W 074°05'0 0.7
2017-Dec-09 12:00N 40°39' W 074°05'0 0.0
2017-Dec-09 11:30N 40°39' W 074°05'1 2.4
2017-Dec-09 11:00N 40°39' W 074°07'1 2.0
2017-Dec-09 10:30N 40°38' W 074°08'0 0.0
2017-Dec-09 10:00N 40°38' W 074°08'0 0.0
2017-Dec-09 09:29N 40°38' W 074°08'0 0.0
2017-Dec-09 09:00N 40°38' W 074°08'0 0.0
2017-Dec-09 08:30N 40°38' W 074°08'0 0.0
2017-Dec-09 08:00N 40°38' W 074°08'0 0.0
2017-Dec-09 07:30N 40°38' W 074°08'0 0.0
2017-Dec-09 07:00N 40°38' W 074°08'0 0.0
2017-Dec-09 06:29N 40°38' W 074°08'0 0.0
2017-Dec-09 06:00N 40°38' W 074°08'0 0.0
2017-Dec-09 05:30N 40°38' W 074°08'0 0.0
2017-Dec-09 05:00N 40°38' W 074°08'0 0.0
2017-Dec-09 04:30N 40°38' W 074°08'0 0.0
2017-Dec-09 04:00N 40°38' W 074°08'0 0.0
2017-Dec-09 03:30N 40°38' W 074°08'0 0.0
2017-Dec-09 03:00N 40°38' W 074°08'0 0.0
2017-Dec-09 02:30N 40°38' W 074°08'0 0.0
2017-Dec-09 01:59N 40°38' W 074°08'0 0.0
2017-Dec-09 01:30N 40°38' W 074°08'0 0.0
2017-Dec-09 01:00N 40°38' W 074°08'0 0.0
2017-Dec-09 00:30N 40°38' W 074°08'0 0.0
2017-Dec-09 00:00N 40°38' W 074°08'0 0.0
2017-Dec-08 23:29N 40°38' W 074°08'0 0.0
2017-Dec-08 22:59N 40°38' W 074°08'0 0.0
2017-Dec-08 22:29N 40°38' W 074°08'0 0.1
2017-Dec-08 21:59N 40°39' W 074°08'0 0.0
2017-Dec-08 21:30N 40°38' W 074°08'2 3.2
2017-Dec-08 20:59N 40°39' W 074°06'0 0.3
2017-Dec-08 20:30N 40°39' W 074°06'2 3.1
2017-Dec-08 20:00N 40°39' W 074°03'5 9.4
2017-Dec-08 19:30N 40°44' W 074°01'4 7.3
2017-Dec-08 19:00N 40°47' W 073°60'0 0.2
2017-Dec-08 18:30N 40°47' W 073°60'2 3.3
2017-Dec-08 18:00N 40°46' W 074°01'3 7.0
2017-Dec-08 17:30N 40°42' W 074°00'3 6.2
2017-Dec-08 17:00N 40°45' W 073°58'3 5.4
2017-Dec-08 16:30N 40°47' W 073°56'1 2.9
2017-Dec-08 16:00N 40°48' W 073°54'0 0.0
2017-Dec-08 15:30N 40°48' W 073°54'1 2.4
2017-Dec-08 15:00N 40°47' W 073°55'510.5
2017-Dec-08 14:31N 40°43' W 073°59'510.7
2017-Dec-08 14:00N 40°38' W 074°03'2 3.2
2017-Dec-08 13:30N 40°37' W 074°03'0 0.3
2017-Dec-08 13:00N 40°37' W 074°03'1 2.5
2017-Dec-08 12:30N 40°38' W 074°04'3 6.1
2017-Dec-08 12:00N 40°38' W 074°08'0 0.0
2017-Dec-08 11:30N 40°38' W 074°08'0 0.0
2017-Dec-08 11:00N 40°38' W 074°08'0 0.0
2017-Dec-08 10:30N 40°38' W 074°08'0 0.0
2017-Dec-08 10:00N 40°38' W 074°08'0 0.0
2017-Dec-08 09:30N 40°38' W 074°08'0 0.0
2017-Dec-08 09:00N 40°38' W 074°08'0 0.1
2017-Dec-08 08:30N 40°38' W 074°08'4 7.4
2017-Dec-08 08:00N 40°37' W 074°12'2 3.5
2017-Dec-08 07:30N 40°35' W 074°12'0 0.1
2017-Dec-08 06:52N 40°35' W 074°13'2 5.7
2017-Dec-08 06:30N 40°37' W 074°12'4 7.3
2017-Dec-08 06:00N 40°38' W 074°08'0 0.0
2017-Dec-08 05:30N 40°38' W 074°08'0 0.0
2017-Dec-08 05:00N 40°38' W 074°08'0 0.0
2017-Dec-08 04:30N 40°38' W 074°08'0 0.0
2017-Dec-08 04:00N 40°38' W 074°08'0 0.0
2017-Dec-08 03:30N 40°38' W 074°08'0 0.0
2017-Dec-08 03:00N 40°38' W 074°08'2 3.2
2017-Dec-08 02:31N 40°39' W 074°06'5 9.2
2017-Dec-08 02:00N 40°42' W 074°01'4 7.2
2017-Dec-08 01:30N 40°45' W 073°58'4 8.1
2017-Dec-08 01:00N 40°48' W 073°55'0 0.6
2017-Dec-08 00:19N 40°48' W 073°54'0 0.4
2017-Dec-08 00:00N 40°48' W 073°54'2 4.2
2017-Dec-07 23:29N 40°47' W 073°56'3 5.2
2017-Dec-07 23:00N 40°45' W 073°58'2 4.6
2017-Dec-07 22:30N 40°42' W 073°59'2 5.0
2017-Dec-07 22:00N 40°41' W 074°02'3 5.3
2017-Dec-07 21:30N 40°39' W 074°04'4 7.7
2017-Dec-07 21:00N 40°39' W 074°09'2 3.6
2017-Dec-07 20:30N 40°38' W 074°12'0 0.3
2017-Dec-07 19:58N 40°38' W 074°11'0 0.0
2017-Dec-07 19:23N 40°38' W 074°12'3 7.3
2017-Dec-07 18:59N 40°38' W 074°08'0 0.1
2017-Dec-07 18:24N 40°38' W 074°08'0 0.0
2017-Dec-07 17:36N 40°38' W 074°08'0 0.0
2017-Dec-07 17:30N 40°38' W 074°08'0 0.0
2017-Dec-07 16:51N 40°38' W 074°08'0 0.0
2017-Dec-07 16:24N 40°38' W 074°08'0 0.0
2017-Dec-07 15:51N 40°38' W 074°08'0 0.0
2017-Dec-07 15:30N 40°38' W 074°08'0 0.0
2017-Dec-07 15:00N 40°38' W 074°08'3 6.1
2017-Dec-07 14:30N 40°38' W 074°12'0 0.1
2017-Dec-07 14:00N 40°38' W 074°12'0 0.0
2017-Dec-07 13:30N 40°38' W 074°12'2 3.3
2017-Dec-07 13:00N 40°39' W 074°10'3 6.1
2017-Dec-07 12:30N 40°39' W 074°06'0 0.0
2017-Dec-07 12:00N 40°39' W 074°06'0 0.0
2017-Dec-07 11:25N 40°39' W 074°06'0 0.0
2017-Dec-07 11:00N 40°39' W 074°06'0 0.0
2017-Dec-07 10:30N 40°39' W 074°06'0 0.0
2017-Dec-07 10:01N 40°39' W 074°06'0 0.0
2017-Dec-07 09:31N 40°39' W 074°06'0 0.0
2017-Dec-07 09:01N 40°39' W 074°06'0 0.1
2017-Dec-07 08:31N 40°39' W 074°06'2 3.5
2017-Dec-07 08:00N 40°38' W 074°08'0 0.0
2017-Dec-07 07:30N 40°38' W 074°08'0 0.0
2017-Dec-07 07:00N 40°38' W 074°08'0 0.0
2017-Dec-07 06:30N 40°38' W 074°08'0 0.0
2017-Dec-07 06:00N 40°38' W 074°08'0 0.0
2017-Dec-07 05:30N 40°38' W 074°08'0 0.0
2017-Dec-07 05:00N 40°38' W 074°08'0 0.0
2017-Dec-07 04:30N 40°38' W 074°08'0 0.0
2017-Dec-07 04:00N 40°38' W 074°08'0 0.4
2017-Dec-07 03:30N 40°39' W 074°08'4 7.7
2017-Dec-07 03:00N 40°36' W 074°12'0 0.0
2017-Dec-07 02:29N 40°36' W 074°12'1 2.8
2017-Dec-07 02:00N 40°38' W 074°12'0 0.0
2017-Dec-07 01:30N 40°38' W 074°12'0 0.3
2017-Dec-07 00:59N 40°38' W 074°12'0 0.1
2017-Dec-07 00:20N 40°38' W 074°12'2 6.7
2017-Dec-07 00:00N 40°39' W 074°10'1 2.5
2017-Dec-06 23:25N 40°38' W 074°08'0 0.0
2017-Dec-06 23:00N 40°38' W 074°08'0 0.0
2017-Dec-06 22:30N 40°38' W 074°08'0 0.0
2017-Dec-06 22:00N 40°38' W 074°08'0 0.1
2017-Dec-06 21:30N 40°38' W 074°08'0 0.1
2017-Dec-06 21:00N 40°38' W 074°08'  
Track history (hours):
 
Tides and Currents Weather Stations Pressure Air Temp Water Temp Dewpoint Dewpoint Depression Visibility Wind Speed Wind Dir Waves Ship Positions

Kimberly Turecamo

Owner: Moran Towing Corporation, New Canaan, CT. More information available from US FCC via Universal Licensing System and Coast Guard Vessel Documentation Center.

Last reported at 2017-Dec-16 11:08 UTC. Time now 2017-Dec-16 17:08 UTC.
Position N 40°60' W 073°53'.

Length 31 m; draft 5 m.

Type: Tug. MMSI: 367061980.

Date/timePositionNaut miles runAvg speedWind from/ knotsBaromVisibWave heightAir tempDewpointWater temp
2017-Dec-16 11:08N 40°60' W 073°53'2 8.6
2017-Dec-16 10:51N 40°58' W 073°54'3 8.3
2017-Dec-16 10:29N 40°55' W 073°55'4 8.1
2017-Dec-16 10:00N 40°51' W 073°57'4 8.3
2017-Dec-16 09:30N 40°47' W 073°59'4 8.1
2017-Dec-16 09:00N 40°44' W 074°01'4 8.0
2017-Dec-16 08:30N 40°40' W 074°03'4 7.7
2017-Dec-16 08:00N 40°38' W 074°08'0 0.1
2017-Dec-16 07:29N 40°38' W 074°08'0 0.0
2017-Dec-16 06:56N 40°38' W 074°08'0 0.0
2017-Dec-16 06:26N 40°38' W 074°08'0 0.0
2017-Dec-16 05:59N 40°38' W 074°08'0 0.0
2017-Dec-16 05:29N 40°38' W 074°08'0 0.0
2017-Dec-16 04:59N 40°38' W 074°08'0 0.0
2017-Dec-16 04:26N 40°38' W 074°08'0 0.0
2017-Dec-16 03:59N 40°38' W 074°08'0 0.0
2017-Dec-16 03:26N 40°38' W 074°08'0 0.0
2017-Dec-16 02:56N 40°38' W 074°08'0 0.0
2017-Dec-16 02:26N 40°38' W 074°08'0 0.0
2017-Dec-16 01:56N 40°38' W 074°08'0 0.0
2017-Dec-16 01:26N 40°38' W 074°08'0 0.0
2017-Dec-16 00:59N 40°38' W 074°08'0 0.0
2017-Dec-16 00:23N 40°38' W 074°08'0 0.0
2017-Dec-15 23:59N 40°38' W 074°08'0 0.0
2017-Dec-15 23:29N 40°38' W 074°08'0 0.0
2017-Dec-15 22:02N 40°38' W 074°08'0 0.0
2017-Dec-15 21:56N 40°38' W 074°08'0 0.0
2017-Dec-15 21:29N 40°38' W 074°08'0 0.0
2017-Dec-15 20:59N 40°38' W 074°08'0 0.0
2017-Dec-15 20:26N 40°38' W 074°08'0 0.0
2017-Dec-15 19:56N 40°38' W 074°08'0 0.0
2017-Dec-15 19:26N 40°38' W 074°08'0 0.0
2017-Dec-15 18:47N 40°38' W 074°08'0 0.0
2017-Dec-15 18:26N 40°38' W 074°08'0 0.0
2017-Dec-15 17:59N 40°38' W 074°08'0 0.0
2017-Dec-15 17:26N 40°38' W 074°08'0 0.0
2017-Dec-15 16:56N 40°38' W 074°08'0 0.0
2017-Dec-15 16:29N 40°38' W 074°08'0 0.0
2017-Dec-15 15:56N 40°38' W 074°08'0 0.0
2017-Dec-15 15:26N 40°38' W 074°08'0 0.0
2017-Dec-15 14:53N 40°38' W 074°08'0 0.0
2017-Dec-15 14:29N 40°38' W 074°08'0 0.0
2017-Dec-15 13:32N 40°38' W 074°08'0 0.0
2017-Dec-15 13:26N 40°38' W 074°08'0 0.0
2017-Dec-15 12:56N 40°38' W 074°08'0 0.0
2017-Dec-15 12:19N 40°38' W 074°08'0 0.0
2017-Dec-15 11:59N 40°38' W 074°08'2 4.2
2017-Dec-15 11:29N 40°39' W 074°10'1 1.4
2017-Dec-15 11:00N 40°39' W 074°11'2 5.0
2017-Dec-15 10:30N 40°39' W 074°08'4 7.1
2017-Dec-15 10:00N 40°39' W 074°03'1 1.5
2017-Dec-15 09:30N 40°38' W 074°03'4 7.4
2017-Dec-15 09:00N 40°38' W 074°08'0 0.0
2017-Dec-15 07:48N 40°38' W 074°08'0 0.0
2017-Dec-15 07:30N 40°38' W 074°08'0 0.0
2017-Dec-15 06:52N 40°38' W 074°08'0 0.0
2017-Dec-15 06:30N 40°38' W 074°08'2 4.8
2017-Dec-15 06:00N 40°39' W 074°05'2 3.0
2017-Dec-15 05:28N 40°39' W 074°03'0 0.0
2017-Dec-15 04:58N 40°39' W 074°03'0 0.0
2017-Dec-15 04:28N 40°39' W 074°03'0 0.0
2017-Dec-15 03:58N 40°39' W 074°03'0 0.0
2017-Dec-15 02:30N 40°39' W 074°03'0 0.0
2017-Dec-15 01:00N 40°39' W 074°03'0 0.0
2017-Dec-15 00:30N 40°39' W 074°03'4 0.7
2017-Dec-14 18:25N 40°38' W 074°08'0 0.0
2017-Dec-14 17:49N 40°38' W 074°08'0 0.0
2017-Dec-14 17:25N 40°38' W 074°08'0 0.0
2017-Dec-14 16:40N 40°38' W 074°08'0 0.0
2017-Dec-14 16:25N 40°38' W 074°08'0 0.0
2017-Dec-14 15:55N 40°38' W 074°08'0 0.0
2017-Dec-14 14:55N 40°38' W 074°08'0 0.0
2017-Dec-14 12:16N 40°38' W 074°08'0 0.0
2017-Dec-14 11:46N 40°38' W 074°08'0 0.0
2017-Dec-14 10:40N 40°38' W 074°08'0 0.0
2017-Dec-14 10:19N 40°38' W 074°08'0 0.0
2017-Dec-14 09:58N 40°38' W 074°08'0 0.0
2017-Dec-14 09:28N 40°38' W 074°08'0 0.0
2017-Dec-14 05:09N 40°38' W 074°08'0 0.0
2017-Dec-14 04:54N 40°38' W 074°08'0 0.0
2017-Dec-14 04:17N 40°38' W 074°08'3 9.7
2017-Dec-14 04:00N 40°39' W 074°04'1 2.5
2017-Dec-14 03:28N 40°39' W 074°03'0 0.1
2017-Dec-14 02:58N 40°39' W 074°03'0 0.1
2017-Dec-14 02:28N 40°39' W 074°03'0 0.1
2017-Dec-14 01:58N 40°40' W 074°03'0 0.0
2017-Dec-14 01:28N 40°40' W 074°03'0 0.0
2017-Dec-14 00:58N 40°40' W 074°03'0 0.1
2017-Dec-14 00:28N 40°40' W 074°03'0 0.1
2017-Dec-13 23:58N 40°40' W 074°03'0 0.0
2017-Dec-13 23:28N 40°40' W 074°03'1 3.0
2017-Dec-13 23:00N 40°39' W 074°04'3 4.8
2017-Dec-13 22:26N 40°38' W 074°08'0 0.6
2017-Dec-13 22:00N 40°39' W 074°07'0 0.9
2017-Dec-13 21:30N 40°39' W 074°07'1 1.0
2017-Dec-13 21:00N 40°39' W 074°08'0 0.2
2017-Dec-13 20:30N 40°39' W 074°08'0 0.1
2017-Dec-13 19:39N 40°38' W 074°08'0 0.0
2017-Dec-13 19:28N 40°38' W 074°08'1 1.6
2017-Dec-13 19:00N 40°39' W 074°07'1 1.5
2017-Dec-13 18:30N 40°38' W 074°08'0 0.0
2017-Dec-13 18:00N 40°38' W 074°08'0 0.0
2017-Dec-13 17:30N 40°38' W 074°08'0 0.0
2017-Dec-13 17:00N 40°38' W 074°08'0 0.0
2017-Dec-13 16:30N 40°38' W 074°08'0 0.0
2017-Dec-13 16:00N 40°38' W 074°08'0 0.0
2017-Dec-13 15:29N 40°38' W 074°08'0 0.0
2017-Dec-13 14:58N 40°38' W 074°08'0 0.0
2017-Dec-13 14:30N 40°38' W 074°08'0 0.0
2017-Dec-13 14:00N 40°38' W 074°08'0 0.0
2017-Dec-13 13:30N 40°38' W 074°08'1 2.6
2017-Dec-13 12:58N 40°39' W 074°06'3 5.9
2017-Dec-13 12:30N 40°40' W 074°03'0 0.0
2017-Dec-13 11:58N 40°40' W 074°03'0 0.1
2017-Dec-13 11:28N 40°39' W 074°03'0 0.1
2017-Dec-13 10:58N 40°40' W 074°03'0 0.0
2017-Dec-13 10:28N 40°40' W 074°03'0 0.1
2017-Dec-13 09:58N 40°39' W 074°03'0 0.0
2017-Dec-13 09:31N 40°39' W 074°03'0 0.1
2017-Dec-13 09:01N 40°40' W 074°03'0 0.0
2017-Dec-13 08:25N 40°40' W 074°03'0 0.1
2017-Dec-13 08:00N 40°39' W 074°03'0 0.0
2017-Dec-13 07:30N 40°39' W 074°03'0 0.0
2017-Dec-13 07:00N 40°39' W 074°03'0 0.0
2017-Dec-13 06:30N 40°39' W 074°03'0 0.1
2017-Dec-13 06:00N 40°39' W 074°03'0 0.0
2017-Dec-13 05:30N 40°39' W 074°03'0 0.0
2017-Dec-13 05:00N 40°39' W 074°03'0 0.0
2017-Dec-13 04:30N 40°39' W 074°03'0 0.0
2017-Dec-13 04:00N 40°39' W 074°03'0 0.0
2017-Dec-13 03:30N 40°39' W 074°03'0 0.0
2017-Dec-13 03:00N 40°39' W 074°03'0 0.0
2017-Dec-13 02:30N 40°39' W 074°03'0 0.0
2017-Dec-13 02:00N 40°39' W 074°03'0 0.1
2017-Dec-13 01:30N 40°39' W 074°03'0 0.0
2017-Dec-13 01:00N 40°39' W 074°03'0 0.0
2017-Dec-13 00:30N 40°39' W 074°03'0 0.1
2017-Dec-13 00:00N 40°39' W 074°03'0 0.0
2017-Dec-12 23:30N 40°39' W 074°03'0 0.0
2017-Dec-12 23:00N 40°40' W 074°03'4 8.1
2017-Dec-12 22:30N 40°38' W 074°08'0 0.0
2017-Dec-12 22:00N 40°38' W 074°08'0 0.0
2017-Dec-12 21:27N 40°38' W 074°08'0 0.0
2017-Dec-12 21:00N 40°38' W 074°08'0 0.0
2017-Dec-12 20:30N 40°38' W 074°08'1 1.1
2017-Dec-12 20:00N 40°39' W 074°07'0 0.1
2017-Dec-12 19:30N 40°39' W 074°07'3 5.6
2017-Dec-12 19:00N 40°38' W 074°03'3 5.7
2017-Dec-12 18:26N 40°38' W 074°08'0 0.0
2017-Dec-12 17:47N 40°38' W 074°08'0 0.0
2017-Dec-12 17:29N 40°38' W 074°08'0 0.0
2017-Dec-12 16:56N 40°38' W 074°08'0 0.0
2017-Dec-12 16:29N 40°38' W 074°08'0 0.0
2017-Dec-12 15:59N 40°38' W 074°08'0 0.0
2017-Dec-12 15:29N 40°38' W 074°08'0 0.0
2017-Dec-12 14:56N 40°38' W 074°08'0 0.0
2017-Dec-12 14:29N 40°38' W 074°08'0 0.0
2017-Dec-12 13:59N 40°38' W 074°08'0 0.0
2017-Dec-12 13:29N 40°38' W 074°08'0 0.0
2017-Dec-12 12:59N 40°38' W 074°08'0 0.0
2017-Dec-12 12:20N 40°38' W 074°08'0 0.0
2017-Dec-12 11:59N 40°38' W 074°08'0 0.0
2017-Dec-12 11:29N 40°38' W 074°08'0 0.0
2017-Dec-12 10:59N 40°38' W 074°08'0 0.0
2017-Dec-12 10:28N 40°38' W 074°08'0 0.0
2017-Dec-12 09:58N 40°38' W 074°08'0 0.0
2017-Dec-12 09:28N 40°38' W 074°08'0 0.0
2017-Dec-12 08:58N 40°38' W 074°08'0 0.0
2017-Dec-12 08:28N 40°38' W 074°08'0 0.0
2017-Dec-12 07:58N 40°38' W 074°08'0 0.0
2017-Dec-12 07:28N 40°38' W 074°08'0 0.0
2017-Dec-12 06:58N 40°38' W 074°08'0 0.0
2017-Dec-12 06:28N 40°38' W 074°08'0 0.0
2017-Dec-12 05:58N 40°38' W 074°08'0 0.0
2017-Dec-12 05:28N 40°38' W 074°08'0 0.0
2017-Dec-12 04:58N 40°38' W 074°08'0 0.0
2017-Dec-12 04:28N 40°38' W 074°08'0 0.7
2017-Dec-12 04:00N 40°39' W 074°07'4 6.7
2017-Dec-12 03:28N 40°39' W 074°03'1 2.2
2017-Dec-12 03:00N 40°40' W 074°02'4 7.1
2017-Dec-12 02:30N 40°44' W 074°01'510.8
2017-Dec-12 02:00N 40°49' W 073°58'510.3
2017-Dec-12 01:30N 40°54' W 073°55'8 0.2
2017-Dec-10 03:47N 41°01' W 073°53'2 6.4
2017-Dec-10 03:29N 40°59' W 073°53'3 6.0
2017-Dec-10 03:00N 40°57' W 073°54'1 1.7
2017-Dec-10 02:30N 40°56' W 073°55'1 2.1
2017-Dec-10 02:00N 40°55' W 073°55'1 1.9
2017-Dec-10 01:30N 40°54' W 073°55'1 2.5
2017-Dec-10 01:00N 40°53' W 073°56'2 3.5
2017-Dec-10 00:29N 40°51' W 073°57'2 3.2
2017-Dec-10 00:00N 40°50' W 073°58'2 3.0
2017-Dec-09 23:30N 40°48' W 073°59'2 3.3
2017-Dec-09 23:01N 40°47' W 073°60'3 6.1
2017-Dec-09 22:30N 40°44' W 074°01'3 6.3
2017-Dec-09 22:01N 40°41' W 074°02'3 6.2
2017-Dec-09 21:29N 40°39' W 074°05'3 6.8
2017-Dec-09 21:00N 40°39' W 074°10'1 3.0
2017-Dec-09 20:30N 40°38' W 074°12'0 0.0
2017-Dec-09 20:00N 40°38' W 074°12'0 0.0
2017-Dec-09 19:30N 40°38' W 074°12'3 1.2
2017-Dec-09 17:06N 40°38' W 074°08'0 0.0
2017-Dec-09 16:54N 40°38' W 074°08'0 0.0
2017-Dec-09 16:18N 40°38' W 074°08'0 0.0
2017-Dec-09 15:59N 40°38' W 074°08'3 6.2
2017-Dec-09 15:30N 40°38' W 074°12'0 0.0
2017-Dec-09 15:00N 40°38' W 074°12'0 0.5
2017-Dec-09 14:30N 40°39' W 074°11'3 5.6
2017-Dec-09 14:00N 40°39' W 074°08'2 3.3
2017-Dec-09 13:28N 40°39' W 074°05'0 0.0
2017-Dec-09 12:58N 40°39' W 074°05'0 0.0
2017-Dec-09 12:30N 40°39' W 074°05'0 0.7
2017-Dec-09 12:00N 40°39' W 074°05'0 0.0
2017-Dec-09 11:30N 40°39' W 074°05'1 2.4
2017-Dec-09 11:00N 40°39' W 074°07'1 2.0
2017-Dec-09 10:30N 40°38' W 074°08'0 0.0
2017-Dec-09 10:00N 40°38' W 074°08'0 0.0
2017-Dec-09 09:29N 40°38' W 074°08'0 0.0
2017-Dec-09 09:00N 40°38' W 074°08'0 0.0
2017-Dec-09 08:30N 40°38' W 074°08'0 0.0
2017-Dec-09 08:00N 40°38' W 074°08'0 0.0
2017-Dec-09 07:30N 40°38' W 074°08'0 0.0
2017-Dec-09 07:00N 40°38' W 074°08'0 0.0
2017-Dec-09 06:29N 40°38' W 074°08'0 0.0
2017-Dec-09 06:00N 40°38' W 074°08'0 0.0
2017-Dec-09 05:30N 40°38' W 074°08'0 0.0
2017-Dec-09 05:00N 40°38' W 074°08'0 0.0
2017-Dec-09 04:30N 40°38' W 074°08'0 0.0
2017-Dec-09 04:00N 40°38' W 074°08'0 0.0
2017-Dec-09 03:30N 40°38' W 074°08'0 0.0
2017-Dec-09 03:00N 40°38' W 074°08'0 0.0
2017-Dec-09 02:30N 40°38' W 074°08'0 0.0
2017-Dec-09 01:59N 40°38' W 074°08'0 0.0
2017-Dec-09 01:30N 40°38' W 074°08'0 0.0
2017-Dec-09 01:00N 40°38' W 074°08'0 0.0
2017-Dec-09 00:30N 40°38' W 074°08'0 0.0
2017-Dec-09 00:00N 40°38' W 074°08'0 0.0
2017-Dec-08 23:29N 40°38' W 074°08'0 0.0
2017-Dec-08 22:59N 40°38' W 074°08'0 0.0
2017-Dec-08 22:29N 40°38' W 074°08'0 0.1
2017-Dec-08 21:59N 40°39' W 074°08'0 0.0
2017-Dec-08 21:30N 40°38' W 074°08'2 3.2
2017-Dec-08 20:59N 40°39' W 074°06'0 0.3
2017-Dec-08 20:30N 40°39' W 074°06'2 3.1
2017-Dec-08 20:00N 40°39' W 074°03'5 9.4
2017-Dec-08 19:30N 40°44' W 074°01'4 7.3
2017-Dec-08 19:00N 40°47' W 073°60'0 0.2
2017-Dec-08 18:30N 40°47' W 073°60'2 3.3
2017-Dec-08 18:00N 40°46' W 074°01'3 7.0
2017-Dec-08 17:30N 40°42' W 074°00'3 6.2
2017-Dec-08 17:00N 40°45' W 073°58'3 5.4
2017-Dec-08 16:30N 40°47' W 073°56'1 2.9
2017-Dec-08 16:00N 40°48' W 073°54'0 0.0
2017-Dec-08 15:30N 40°48' W 073°54'1 2.4
2017-Dec-08 15:00N 40°47' W 073°55'510.5
2017-Dec-08 14:31N 40°43' W 073°59'510.7
2017-Dec-08 14:00N 40°38' W 074°03'2 3.2
2017-Dec-08 13:30N 40°37' W 074°03'0 0.3
2017-Dec-08 13:00N 40°37' W 074°03'1 2.5
2017-Dec-08 12:30N 40°38' W 074°04'3 6.1
2017-Dec-08 12:00N 40°38' W 074°08'0 0.0
2017-Dec-08 11:30N 40°38' W 074°08'0 0.0
2017-Dec-08 11:00N 40°38' W 074°08'0 0.0
2017-Dec-08 10:30N 40°38' W 074°08'0 0.0
2017-Dec-08 10:00N 40°38' W 074°08'0 0.0
2017-Dec-08 09:30N 40°38' W 074°08'0 0.0
2017-Dec-08 09:00N 40°38' W 074°08'0 0.1
2017-Dec-08 08:30N 40°38' W 074°08'4 7.4
2017-Dec-08 08:00N 40°37' W 074°12'2 3.5
2017-Dec-08 07:30N 40°35' W 074°12'0 0.1
2017-Dec-08 06:52N 40°35' W 074°13'2 5.7
2017-Dec-08 06:30N 40°37' W 074°12'4 7.3
2017-Dec-08 06:00N 40°38' W 074°08'0 0.0
2017-Dec-08 05:30N 40°38' W 074°08'0 0.0
2017-Dec-08 05:00N 40°38' W 074°08'0 0.0
2017-Dec-08 04:30N 40°38' W 074°08'0 0.0
2017-Dec-08 04:00N 40°38' W 074°08'0 0.0
2017-Dec-08 03:30N 40°38' W 074°08'0 0.0
2017-Dec-08 03:00N 40°38' W 074°08'2 3.2
2017-Dec-08 02:31N 40°39' W 074°06'5 9.2
2017-Dec-08 02:00N 40°42' W 074°01'4 7.2
2017-Dec-08 01:30N 40°45' W 073°58'4 8.1
2017-Dec-08 01:00N 40°48' W 073°55'0 0.6
2017-Dec-08 00:19N 40°48' W 073°54'0 0.4
2017-Dec-08 00:00N 40°48' W 073°54'2 4.2
2017-Dec-07 23:29N 40°47' W 073°56'3 5.2
2017-Dec-07 23:00N 40°45' W 073°58'2 4.6
2017-Dec-07 22:30N 40°42' W 073°59'2 5.0
2017-Dec-07 22:00N 40°41' W 074°02'3 5.3
2017-Dec-07 21:30N 40°39' W 074°04'4 7.7
2017-Dec-07 21:00N 40°39' W 074°09'2 3.6
2017-Dec-07 20:30N 40°38' W 074°12'0 0.3
2017-Dec-07 19:58N 40°38' W 074°11'0 0.0
2017-Dec-07 19:23N 40°38' W 074°12'3 7.3
2017-Dec-07 18:59N 40°38' W 074°08'0 0.1
2017-Dec-07 18:24N 40°38' W 074°08'0 0.0
2017-Dec-07 17:36N 40°38' W 074°08'0 0.0
2017-Dec-07 17:30N 40°38' W 074°08'0 0.0
2017-Dec-07 16:51N 40°38' W 074°08'0 0.0
2017-Dec-07 16:24N 40°38' W 074°08'0 0.0
2017-Dec-07 15:51N 40°38' W 074°08'0 0.0
2017-Dec-07 15:30N 40°38' W 074°08'0 0.0
2017-Dec-07 15:00N 40°38' W 074°08'3 6.1
2017-Dec-07 14:30N 40°38' W 074°12'0 0.1
2017-Dec-07 14:00N 40°38' W 074°12'0 0.0
2017-Dec-07 13:30N 40°38' W 074°12'2 3.3
2017-Dec-07 13:00N 40°39' W 074°10'3 6.1
2017-Dec-07 12:30N 40°39' W 074°06'0 0.0
2017-Dec-07 12:00N 40°39' W 074°06'0 0.0
2017-Dec-07 11:25N 40°39' W 074°06'0 0.0
2017-Dec-07 11:00N 40°39' W 074°06'0 0.0
2017-Dec-07 10:30N 40°39' W 074°06'0 0.0
2017-Dec-07 10:01N 40°39' W 074°06'0 0.0
2017-Dec-07 09:31N 40°39' W 074°06'0 0.0
2017-Dec-07 09:01N 40°39' W 074°06'0 0.1
2017-Dec-07 08:31N 40°39' W 074°06'2 3.5
2017-Dec-07 08:00N 40°38' W 074°08'0 0.0
2017-Dec-07 07:30N 40°38' W 074°08'0 0.0
2017-Dec-07 07:00N 40°38' W 074°08'0 0.0
2017-Dec-07 06:30N 40°38' W 074°08'0 0.0
2017-Dec-07 06:00N 40°38' W 074°08'0 0.0
2017-Dec-07 05:30N 40°38' W 074°08'0 0.0
2017-Dec-07 05:00N 40°38' W 074°08'0 0.0
2017-Dec-07 04:30N 40°38' W 074°08'0 0.0
2017-Dec-07 04:00N 40°38' W 074°08'0 0.4
2017-Dec-07 03:30N 40°39' W 074°08'4 7.7
2017-Dec-07 03:00N 40°36' W 074°12'0 0.0
2017-Dec-07 02:29N 40°36' W 074°12'1 2.8
2017-Dec-07 02:00N 40°38' W 074°12'0 0.0
2017-Dec-07 01:30N 40°38' W 074°12'0 0.3
2017-Dec-07 00:59N 40°38' W 074°12'0 0.1
2017-Dec-07 00:20N 40°38' W 074°12'2 6.7
2017-Dec-07 00:00N 40°39' W 074°10'1 2.5
2017-Dec-06 23:25N 40°38' W 074°08'0 0.0
2017-Dec-06 23:00N 40°38' W 074°08'0 0.0
2017-Dec-06 22:30N 40°38' W 074°08'0 0.0
2017-Dec-06 22:00N 40°38' W 074°08'0 0.1
2017-Dec-06 21:30N 40°38' W 074°08'0 0.1
2017-Dec-06 21:00N 40°38' W 074°08'  

Dump ship's entire track history